createdAt,value
2023-11-06T00:00:34.855Z,1.38
2023-11-06T00:01:37.126Z,1.48
2023-11-06T00:02:39.322Z,1.65
2023-11-06T00:03:41.569Z,1.38
2023-11-06T00:04:43.809Z,1.70
2023-11-06T00:05:46.173Z,1.27
2023-11-06T00:06:48.557Z,1.55
2023-11-06T00:07:50.737Z,1.75
2023-11-06T00:08:55.197Z,1.70
2023-11-06T00:09:58.523Z,1.85
2023-11-06T00:11:02.019Z,1.50
2023-11-06T00:12:04.645Z,1.40
2023-11-06T00:13:07.140Z,1.65
2023-11-06T00:14:10.689Z,1.67
2023-11-06T00:15:15.554Z,1.63
2023-11-06T00:16:26.480Z,1.52
2023-11-06T00:17:31.814Z,1.88
2023-11-06T00:18:34.238Z,1.70
2023-11-06T00:19:36.652Z,1.70
2023-11-06T00:20:38.902Z,1.55
2023-11-06T00:21:41.844Z,1.88
2023-11-06T00:22:44.372Z,1.60
2023-11-06T00:23:46.564Z,1.55
2023-11-06T00:24:48.782Z,2.03
2023-11-06T00:25:51.203Z,1.83
2023-11-06T00:26:53.864Z,1.48
2023-11-06T00:27:56.976Z,1.58
2023-11-06T00:28:59.743Z,1.90
2023-11-06T00:30:02.205Z,1.92
2023-11-06T00:31:07.190Z,2.15
2023-11-06T00:32:09.547Z,1.70
2023-11-06T00:33:11.832Z,1.65
2023-11-06T00:34:14.292Z,2.10
2023-11-06T00:35:17.710Z,1.63
2023-11-06T00:36:26.668Z,1.30
2023-11-06T00:37:28.967Z,1.52
2023-11-06T00:38:31.150Z,1.75
2023-11-06T00:39:37.009Z,1.70
2023-11-06T00:40:39.605Z,1.80
2023-11-06T00:41:41.868Z,1.90
2023-11-06T00:42:44.673Z,1.48
2023-11-06T00:43:47.750Z,1.73
2023-11-06T00:44:49.996Z,1.60
2023-11-06T00:45:52.193Z,1.45
2023-11-06T00:46:54.844Z,1.65
2023-11-06T00:47:57.280Z,2.70
2023-11-06T00:48:59.552Z,2.03
2023-11-06T00:50:02.454Z,1.58
2023-11-06T00:51:04.983Z,1.85
2023-11-06T00:52:08.131Z,1.75
2023-11-06T00:53:10.506Z,1.83
2023-11-06T00:54:12.840Z,1.63
2023-11-06T00:55:15.143Z,1.83
2023-11-06T00:56:19.958Z,1.65
2023-11-06T00:57:22.463Z,1.60
2023-11-06T00:58:24.836Z,1.52
2023-11-06T00:59:27.120Z,1.73
2023-11-06T01:00:30.612Z,1.85
2023-11-06T01:01:32.926Z,1.58
2023-11-06T01:02:35.170Z,1.38
2023-11-06T01:03:37.485Z,2.03
2023-11-06T01:04:39.757Z,1.67
2023-11-06T01:05:42.180Z,1.33
2023-11-06T01:06:44.838Z,1.38
2023-11-06T01:07:47.125Z,1.65
2023-11-06T01:08:49.382Z,1.48
2023-11-06T01:09:52.490Z,1.70
2023-11-06T01:10:55.165Z,1.77
2023-11-06T01:11:57.410Z,1.63
2023-11-06T01:13:01.139Z,1.40
2023-11-06T01:14:04.474Z,1.50
2023-11-06T01:15:07.330Z,1.55
2023-11-06T01:16:09.907Z,1.80
2023-11-06T01:17:13.412Z,1.67
2023-11-06T01:18:16.861Z,1.73
2023-11-06T01:19:21.277Z,1.92
2023-11-06T01:20:23.541Z,1.92
2023-11-06T01:21:25.828Z,1.70
2023-11-06T01:22:38.632Z,2.00
2023-11-06T01:23:43.643Z,1.88
2023-11-06T01:24:45.892Z,1.50
2023-11-06T01:25:48.578Z,1.40
2023-11-06T01:26:51.131Z,1.80
2023-11-06T01:27:53.542Z,1.70
2023-11-06T01:28:55.962Z,1.77
2023-11-06T01:29:58.216Z,1.85
2023-11-06T01:31:00.489Z,1.80
2023-11-06T01:32:04.646Z,1.90
2023-11-06T01:33:06.960Z,1.88
2023-11-06T01:34:09.355Z,1.80
2023-11-06T01:35:14.436Z,2.13
2023-11-06T01:36:17.912Z,1.70
2023-11-06T01:37:20.157Z,1.77
2023-11-06T01:38:22.415Z,1.30
2023-11-06T01:39:24.641Z,1.50
2023-11-06T01:40:26.817Z,1.77
2023-11-06T01:41:29.139Z,1.77
2023-11-06T01:42:31.725Z,1.90
2023-11-06T01:43:34.275Z,1.42
2023-11-06T01:44:36.569Z,1.58
2023-11-06T01:45:40.402Z,1.77
2023-11-06T01:46:43.130Z,1.63
2023-11-06T01:47:45.724Z,1.65
2023-11-06T01:48:48.548Z,1.80
2023-11-06T01:49:51.688Z,1.70
2023-11-06T01:50:54.325Z,1.80
2023-11-06T01:51:56.716Z,1.48
2023-11-06T01:53:02.603Z,2.03
2023-11-06T01:54:05.591Z,1.40
2023-11-06T01:55:08.741Z,2.20
2023-11-06T01:56:12.237Z,1.95
2023-11-06T01:57:18.462Z,1.40
2023-11-06T01:58:22.008Z,1.92
2023-11-06T01:59:24.380Z,1.95
2023-11-06T02:00:28.162Z,2.08
2023-11-06T02:01:32.697Z,1.60
2023-11-06T02:02:35.695Z,1.67
2023-11-06T02:03:39.850Z,1.75
2023-11-06T02:04:48.567Z,1.75
2023-11-06T02:05:51.568Z,1.63
2023-11-06T02:06:54.542Z,1.60
2023-11-06T02:07:56.791Z,2.13
2023-11-06T02:09:01.995Z,1.60
2023-11-06T02:10:04.601Z,1.38
2023-11-06T02:11:07.445Z,1.60
2023-11-06T02:12:10.075Z,2.00
2023-11-06T02:13:12.288Z,1.60
2023-11-06T02:14:14.643Z,1.50
2023-11-06T02:15:17.130Z,1.75
2023-11-06T02:16:20.856Z,1.77
2023-11-06T02:17:23.230Z,1.75
2023-11-06T02:18:25.537Z,1.65
2023-11-06T02:19:27.918Z,1.77
2023-11-06T02:20:30.371Z,1.58
2023-11-06T02:21:37.151Z,1.65
2023-11-06T02:22:44.483Z,1.45
2023-11-06T02:23:46.802Z,1.30
2023-11-06T02:24:50.395Z,2.03
2023-11-06T02:25:53.050Z,1.85
2023-11-06T02:26:58.234Z,1.30
2023-11-06T02:28:00.470Z,1.40
2023-11-06T02:29:02.769Z,1.27
2023-11-06T02:30:05.471Z,1.17
2023-11-06T02:31:07.739Z,2.13
2023-11-06T02:32:10.333Z,1.70
2023-11-06T02:33:12.580Z,1.27
2023-11-06T02:34:14.867Z,1.52
2023-11-06T02:35:17.765Z,1.35
2023-11-06T02:36:20.111Z,1.73
2023-11-06T02:37:24.944Z,1.42
2023-11-06T02:38:27.566Z,1.20
2023-11-06T02:39:29.831Z,1.48
2023-11-06T02:40:32.002Z,1.38
2023-11-06T02:41:34.258Z,1.30
2023-11-06T02:42:37.710Z,1.15
2023-11-06T02:43:40.020Z,1.40
2023-11-06T02:44:42.393Z,1.90
2023-11-06T02:45:45.953Z,1.20
2023-11-06T02:46:48.261Z,1.15
2023-11-06T02:47:51.058Z,1.48
2023-11-06T02:48:54.007Z,1.20
2023-11-06T02:49:56.328Z,1.00
2023-11-06T02:50:58.597Z,1.33
2023-11-06T02:52:00.819Z,1.48
2023-11-06T02:53:05.090Z,1.30
2023-11-06T02:54:08.710Z,0.85
2023-11-06T02:55:11.535Z,1.35
2023-11-06T02:56:13.807Z,1.20
2023-11-06T02:57:16.110Z,1.45
2023-11-06T02:58:18.352Z,1.40
2023-11-06T02:59:23.098Z,1.48
2023-11-06T03:02:19.744Z,1.10
2023-11-06T03:03:22.258Z,1.38
2023-11-06T03:04:25.399Z,1.58
2023-11-06T03:05:27.770Z,1.33
2023-11-06T03:06:31.264Z,1.58
2023-11-06T03:07:36.675Z,1.48
2023-11-06T03:08:38.907Z,1.40
2023-11-06T03:09:41.274Z,1.10
2023-11-06T03:10:43.482Z,1.40
2023-11-06T03:11:45.733Z,1.20
2023-11-06T03:12:47.932Z,1.40
2023-11-06T03:13:50.307Z,1.50
2023-11-06T03:14:55.667Z,1.58
2023-11-06T03:15:57.906Z,1.58
2023-11-06T03:17:00.593Z,1.45
2023-11-06T03:18:02.928Z,1.30
2023-11-06T03:19:06.485Z,1.38
2023-11-06T03:20:12.315Z,1.58
2023-11-06T03:21:14.933Z,1.45
2023-11-06T03:22:17.230Z,1.40
2023-11-06T03:23:19.527Z,1.58
2023-11-06T03:24:21.845Z,1.63
2023-11-06T03:25:24.048Z,1.48
2023-11-06T03:26:26.538Z,1.38
2023-11-06T03:27:28.783Z,1.80
2023-11-06T03:28:31.084Z,1.73
2023-11-06T03:29:33.721Z,1.17
2023-11-06T03:30:36.008Z,1.60
2023-11-06T03:31:38.183Z,1.30
2023-11-06T03:32:40.634Z,1.23
2023-11-06T03:33:43.013Z,1.30
2023-11-06T03:34:45.717Z,1.35
2023-11-06T03:35:48.028Z,1.50
2023-11-06T03:36:51.529Z,1.55
2023-11-06T03:37:53.768Z,1.48
2023-11-06T03:38:55.972Z,1.35
2023-11-06T03:39:58.560Z,1.27
2023-11-06T03:41:00.868Z,1.20
2023-11-06T03:42:03.299Z,1.35
2023-11-06T03:43:06.225Z,1.80
2023-11-06T03:44:08.469Z,1.48
2023-11-06T03:45:10.801Z,1.15
2023-11-06T03:46:13.002Z,1.25
2023-11-06T03:47:15.328Z,1.58
2023-11-06T03:48:18.145Z,1.20
2023-11-06T03:49:22.279Z,1.27
2023-11-06T03:50:24.611Z,1.85
2023-11-06T03:51:26.815Z,1.13
2023-11-06T03:52:29.081Z,1.42
2023-11-06T03:53:31.689Z,0.90
2023-11-06T03:54:33.929Z,1.60
2023-11-06T03:55:36.339Z,1.48
2023-11-06T03:56:38.589Z,1.50
2023-11-06T03:57:41.116Z,1.20
2023-11-06T03:58:43.995Z,1.42
2023-11-06T03:59:46.197Z,1.60
2023-11-06T04:00:48.514Z,1.48
2023-11-06T04:01:50.734Z,1.23
2023-11-06T04:02:52.930Z,0.90
2023-11-06T04:03:59.235Z,1.55
2023-11-06T04:05:01.506Z,1.38
2023-11-06T04:06:04.444Z,1.42
2023-11-06T04:07:06.857Z,1.25
2023-11-06T04:08:10.913Z,1.52
2023-11-06T04:09:13.517Z,1.50
2023-11-06T04:10:16.228Z,1.35
2023-11-06T04:11:21.821Z,1.23
2023-11-06T04:12:24.151Z,1.67
2023-11-06T04:13:26.365Z,1.23
2023-11-06T04:14:28.607Z,1.63
2023-11-06T04:15:31.498Z,1.20
2023-11-06T04:16:34.104Z,1.60
2023-11-06T04:17:36.563Z,1.55
2023-11-06T04:18:38.982Z,1.10
2023-11-06T04:19:41.544Z,1.50
2023-11-06T04:20:43.746Z,1.13
2023-11-06T04:21:46.044Z,1.30
2023-11-06T04:22:48.298Z,1.40
2023-11-06T04:23:50.715Z,0.98
2023-11-06T04:24:52.988Z,1.20
2023-11-06T04:25:55.222Z,1.02
2023-11-06T04:26:57.524Z,0.98
2023-11-06T04:28:00.616Z,1.17
2023-11-06T04:29:03.485Z,1.00
2023-11-06T04:30:08.550Z,1.30
2023-11-06T04:31:10.845Z,1.17
2023-11-06T04:32:13.110Z,1.52
2023-11-06T04:33:15.462Z,1.23
2023-11-06T04:34:17.703Z,1.20
2023-11-06T04:35:19.989Z,1.50
2023-11-06T04:36:22.565Z,1.30
2023-11-06T04:37:24.813Z,1.70
2023-11-06T04:38:27.110Z,0.98
2023-11-06T04:39:29.391Z,1.20
2023-11-06T04:40:31.756Z,1.40
2023-11-06T04:41:33.984Z,1.50
2023-11-06T04:42:36.232Z,1.67
2023-11-06T04:43:38.410Z,1.20
2023-11-06T04:44:40.586Z,1.13
2023-11-06T04:45:42.819Z,1.10
2023-11-06T04:46:45.248Z,1.35
2023-11-06T04:47:47.461Z,1.20
2023-11-06T04:48:49.717Z,1.45
2023-11-06T04:49:52.026Z,1.20
2023-11-06T04:50:54.274Z,1.45
2023-11-06T04:51:56.558Z,1.33
2023-11-06T04:52:58.850Z,1.40
2023-11-06T04:54:01.062Z,1.50
2023-11-06T04:55:03.560Z,1.30
2023-11-06T04:56:06.278Z,1.30
2023-11-06T04:57:08.576Z,1.45
2023-11-06T04:58:11.250Z,1.10
2023-11-06T04:59:13.807Z,1.30
2023-11-06T05:00:16.531Z,1.20
2023-11-06T05:01:19.193Z,1.42
2023-11-06T05:02:21.398Z,1.23
2023-11-06T05:03:23.745Z,1.38
2023-11-06T05:04:26.615Z,1.70
2023-11-06T05:05:29.890Z,1.20
2023-11-06T05:06:32.154Z,1.13
2023-11-06T05:07:34.420Z,1.20
2023-11-06T05:08:38.264Z,1.40
2023-11-06T05:09:40.614Z,1.58
2023-11-06T05:10:42.827Z,1.38
2023-11-06T05:11:45.366Z,1.35
2023-11-06T05:12:47.594Z,1.23
2023-11-06T05:13:52.491Z,1.40
2023-11-06T05:14:55.148Z,1.40
2023-11-06T05:15:57.447Z,1.17
2023-11-06T05:16:59.726Z,1.45
2023-11-06T05:18:03.512Z,1.33
2023-11-06T05:19:05.758Z,1.73
2023-11-06T05:20:10.750Z,1.40
2023-11-06T05:21:13.204Z,1.17
2023-11-06T05:22:17.256Z,1.52
2023-11-06T05:23:20.995Z,1.35
2023-11-06T05:24:24.578Z,1.85
2023-11-06T05:25:27.448Z,1.30
2023-11-06T05:26:29.752Z,1.17
2023-11-06T05:27:32.684Z,1.35
2023-11-06T05:28:34.958Z,1.40
2023-11-06T05:29:37.338Z,1.38
2023-11-06T05:30:39.611Z,1.65
2023-11-06T05:31:42.626Z,1.33
2023-11-06T05:32:45.521Z,1.40
2023-11-06T05:33:47.903Z,1.02
2023-11-06T05:34:50.202Z,1.27
2023-11-06T05:35:52.438Z,0.90
2023-11-06T05:36:54.673Z,1.33
2023-11-06T05:37:56.938Z,1.30
2023-11-06T05:38:59.194Z,1.30
2023-11-06T05:40:01.437Z,2.22
2023-11-06T05:41:03.832Z,1.23
2023-11-06T05:42:07.710Z,1.30
2023-11-06T05:43:10.243Z,1.50
2023-11-06T05:44:14.649Z,1.10
2023-11-06T05:45:17.077Z,1.20
2023-11-06T05:46:19.383Z,1.33
2023-11-06T05:47:21.747Z,1.10
2023-11-06T05:48:24.461Z,1.05
2023-11-06T05:49:26.706Z,1.10
2023-11-06T05:50:29.987Z,1.23
2023-11-06T05:51:32.210Z,1.60
2023-11-06T05:52:34.739Z,1.10
2023-11-06T05:53:37.382Z,1.20
2023-11-06T05:54:40.416Z,1.35
2023-11-06T05:55:42.694Z,1.40
2023-11-06T05:56:45.161Z,1.40
2023-11-06T05:57:47.852Z,1.30
2023-11-06T05:58:50.061Z,1.40
2023-11-06T05:59:52.258Z,1.40
2023-11-06T06:00:54.479Z,1.25
2023-11-06T06:01:56.777Z,1.20
2023-11-06T06:03:02.815Z,1.13
2023-11-06T06:04:06.077Z,1.65
2023-11-06T06:05:08.527Z,1.30
2023-11-06T06:06:11.182Z,1.10
2023-11-06T06:07:13.550Z,1.33
2023-11-06T06:08:16.639Z,1.52
2023-11-06T06:09:19.175Z,1.25
2023-11-06T06:10:21.457Z,1.17
2023-11-06T06:11:24.425Z,1.33
2023-11-06T06:12:28.726Z,1.40
2023-11-06T06:13:30.900Z,1.00
2023-11-06T06:14:33.239Z,1.67
2023-11-06T06:15:35.498Z,1.40
2023-11-06T06:16:37.729Z,1.52
2023-11-06T06:17:41.303Z,1.30
2023-11-06T06:18:45.574Z,1.33
2023-11-06T06:19:47.862Z,1.35
2023-11-06T06:20:50.113Z,1.40
2023-11-06T06:21:52.520Z,1.10
2023-11-06T06:22:54.758Z,1.23
2023-11-06T06:23:58.243Z,1.30
2023-11-06T06:25:00.501Z,1.75
2023-11-06T06:26:02.965Z,1.23
2023-11-06T06:27:05.359Z,1.40
2023-11-06T06:28:07.538Z,1.15
2023-11-06T06:29:11.832Z,1.70
2023-11-06T06:30:16.420Z,1.58
2023-11-06T06:31:19.486Z,1.27
2023-11-06T06:32:21.836Z,1.48
2023-11-06T06:33:24.252Z,1.77
2023-11-06T06:34:26.631Z,1.83
2023-11-06T06:35:28.867Z,1.80
2023-11-06T06:36:31.176Z,1.15
2023-11-06T06:37:33.513Z,1.30
2023-11-06T06:38:35.768Z,1.17
2023-11-06T06:39:37.991Z,1.20
2023-11-06T06:40:40.186Z,1.80
2023-11-06T06:41:42.705Z,3.40
2023-11-06T06:42:44.999Z,2.17
2023-11-06T06:43:47.226Z,1.90
2023-11-06T06:44:49.707Z,1.60
2023-11-06T06:45:51.886Z,2.15
2023-11-06T06:46:57.738Z,2.22
2023-11-06T06:48:00.063Z,1.17
2023-11-06T06:49:02.375Z,1.40
2023-11-06T06:50:05.187Z,1.45
2023-11-06T06:51:08.017Z,1.13
2023-11-06T06:52:11.043Z,1.10
2023-11-06T06:53:13.371Z,1.30
2023-11-06T06:54:15.647Z,1.52
2023-11-06T06:55:22.523Z,1.42
2023-11-06T06:56:24.835Z,1.17
2023-11-06T06:57:27.338Z,1.33
2023-11-06T06:58:29.609Z,1.80
2023-11-06T06:59:31.886Z,1.48
2023-11-06T07:00:36.186Z,1.35
2023-11-06T07:01:38.488Z,1.45
2023-11-06T07:02:40.946Z,1.20
2023-11-06T07:03:43.352Z,1.50
2023-11-06T07:04:45.823Z,1.52
2023-11-06T07:05:48.647Z,1.30
2023-11-06T07:06:51.007Z,1.20
2023-11-06T07:07:53.400Z,1.50
2023-11-06T07:08:58.209Z,1.40
2023-11-06T07:10:00.412Z,1.50
2023-11-06T07:11:02.864Z,1.23
2023-11-06T07:12:05.476Z,1.40
2023-11-06T07:13:07.742Z,1.60
2023-11-06T07:14:10.186Z,1.17
2023-11-06T07:15:12.734Z,1.50
2023-11-06T07:16:15.284Z,1.20
2023-11-06T07:17:18.417Z,1.30
2023-11-06T07:18:20.920Z,1.55
2023-11-06T07:19:23.206Z,1.20
2023-11-06T07:20:25.835Z,1.00
2023-11-06T07:21:28.805Z,1.63
2023-11-06T07:22:31.053Z,1.17
2023-11-06T07:23:33.627Z,1.10
2023-11-06T07:24:36.108Z,1.48
2023-11-06T07:25:38.489Z,1.23
2023-11-06T07:26:40.688Z,1.48
2023-11-06T07:27:44.593Z,1.40
2023-11-06T07:28:46.850Z,1.52
2023-11-06T07:29:49.303Z,1.02
2023-11-06T07:30:51.565Z,1.33
2023-11-06T07:31:54.146Z,1.30
2023-11-06T07:32:56.718Z,1.35
2023-11-06T07:33:59.066Z,1.20
2023-11-06T07:35:01.714Z,1.50
2023-11-06T07:36:04.558Z,1.10
2023-11-06T07:37:06.842Z,1.30
2023-11-06T07:38:09.066Z,1.10
2023-11-06T07:39:11.288Z,1.70
2023-11-06T07:40:14.982Z,1.23
2023-11-06T07:41:18.345Z,0.95
2023-11-06T07:42:20.643Z,4.28
2023-11-06T07:43:22.917Z,8.57
2023-11-06T07:44:25.191Z,9.80
2023-11-06T07:45:27.451Z,2.60
2023-11-06T07:46:30.245Z,7.72
2023-11-06T07:47:32.554Z,2.92
2023-11-06T07:48:34.870Z,1.20
2023-11-06T07:49:37.478Z,1.25
2023-11-06T07:50:39.804Z,1.33
2023-11-06T07:51:42.144Z,1.30
2023-11-06T07:52:44.484Z,1.33
2023-11-06T07:53:46.778Z,1.30
2023-11-06T07:54:49.063Z,1.52
2023-11-06T07:55:51.346Z,1.33
2023-11-06T07:56:54.130Z,1.58
2023-11-06T07:57:56.335Z,1.77
2023-11-06T07:58:58.651Z,1.60
2023-11-06T08:00:01.644Z,1.52
2023-11-06T08:01:15.950Z,1.65
2023-11-06T08:02:18.649Z,1.50
2023-11-06T08:03:20.911Z,1.50
2023-11-06T08:04:23.474Z,1.20
2023-11-06T08:05:25.760Z,1.40
2023-11-06T08:06:28.118Z,1.45
2023-11-06T08:07:30.356Z,1.40
2023-11-06T08:08:32.864Z,1.58
2023-11-06T08:09:35.097Z,1.40
2023-11-06T08:10:37.637Z,1.20
2023-11-06T08:11:40.002Z,1.40
2023-11-06T08:12:42.490Z,1.67
2023-11-06T08:13:45.567Z,1.30
2023-11-06T08:14:48.075Z,1.50
2023-11-06T08:15:50.355Z,1.45
2023-11-06T08:16:53.033Z,1.50
2023-11-06T08:17:55.664Z,1.42
2023-11-06T08:18:57.886Z,1.63
2023-11-06T08:20:00.229Z,1.45
2023-11-06T08:21:02.583Z,1.27
2023-11-06T08:22:05.115Z,1.60
2023-11-06T08:23:07.334Z,1.23
2023-11-06T08:24:09.572Z,1.20
2023-11-06T08:25:15.230Z,1.55
2023-11-06T08:26:17.466Z,1.30
2023-11-06T08:27:19.664Z,1.40
2023-11-06T08:28:22.479Z,1.17
2023-11-06T08:29:25.398Z,1.50
2023-11-06T08:30:27.750Z,1.20
2023-11-06T08:31:30.851Z,1.10
2023-11-06T08:32:33.152Z,1.15
2023-11-06T08:33:36.551Z,1.27
2023-11-06T08:34:45.721Z,1.45
2023-11-06T08:35:47.974Z,1.02
2023-11-06T08:36:51.154Z,1.20
2023-11-06T08:37:54.013Z,1.27
2023-11-06T08:38:56.193Z,1.00
2023-11-06T08:39:58.429Z,1.20
2023-11-06T08:41:00.615Z,1.27
2023-11-06T08:42:02.800Z,0.98
2023-11-06T08:43:05.294Z,1.10
2023-11-06T08:44:07.552Z,1.35
2023-11-06T08:45:10.313Z,1.55
2023-11-06T08:46:13.064Z,1.15
2023-11-06T08:47:16.562Z,1.92
2023-11-06T08:48:18.840Z,1.65
2023-11-06T08:49:24.109Z,2.03
2023-11-06T08:50:30.508Z,1.13
2023-11-06T08:51:32.994Z,1.13
2023-11-06T08:52:35.352Z,1.08
2023-11-06T08:53:37.584Z,1.17
2023-11-06T08:54:42.476Z,1.10
2023-11-06T08:55:44.757Z,1.35
2023-11-06T08:56:47.581Z,1.30
2023-11-06T08:57:49.763Z,1.00
2023-11-06T08:58:52.260Z,1.13
2023-11-06T08:59:54.494Z,1.05
2023-11-06T09:00:57.008Z,1.38
2023-11-06T09:01:59.323Z,1.00
2023-11-06T09:03:04.644Z,1.58
2023-11-06T09:04:11.209Z,1.40
2023-11-06T09:05:15.304Z,1.10
2023-11-06T09:06:19.160Z,0.98
2023-11-06T09:07:21.426Z,0.90
2023-11-06T09:08:26.647Z,1.33
2023-11-06T09:09:29.510Z,1.13
2023-11-06T09:10:31.756Z,1.00
2023-11-06T09:11:34.004Z,1.17
2023-11-06T09:12:36.977Z,0.90
2023-11-06T09:13:39.301Z,1.13
2023-11-06T09:14:41.581Z,1.25
2023-11-06T09:15:43.798Z,1.17
2023-11-06T09:16:45.988Z,1.30
2023-11-06T09:17:48.313Z,1.17
2023-11-06T09:18:50.815Z,1.00
2023-11-06T09:19:53.134Z,1.10
2023-11-06T09:20:55.370Z,0.93
2023-11-06T09:21:57.601Z,1.05
2023-11-06T09:23:01.708Z,1.17
2023-11-06T09:24:05.493Z,0.70
2023-11-06T09:25:09.269Z,0.80
2023-11-06T09:26:12.132Z,0.85
2023-11-06T09:27:14.606Z,0.85
2023-11-06T09:28:17.072Z,1.10
2023-11-06T09:29:22.225Z,0.82
2023-11-06T09:30:24.512Z,1.33
2023-11-06T09:31:26.778Z,0.77
2023-11-06T09:32:29.061Z,0.70
2023-11-06T09:33:31.577Z,1.13
2023-11-06T09:34:33.919Z,0.80
2023-11-06T09:35:36.210Z,0.68
2023-11-06T09:36:38.465Z,1.23
2023-11-06T09:37:40.708Z,1.00
2023-11-06T09:38:43.059Z,1.00
2023-11-06T09:39:45.439Z,0.90
2023-11-06T09:40:47.770Z,0.70
2023-11-06T09:41:50.905Z,0.85
2023-11-06T09:42:53.366Z,0.63
2023-11-06T09:43:57.308Z,0.93
2023-11-06T09:45:00.881Z,0.77
2023-11-06T09:46:08.720Z,0.93
2023-11-06T09:47:12.454Z,1.00
2023-11-06T09:48:18.619Z,0.80
2023-11-06T09:49:27.673Z,0.77
2023-11-06T09:50:31.475Z,0.95
2023-11-06T09:51:35.926Z,0.90
2023-11-06T09:52:38.250Z,0.85
2023-11-06T09:53:43.456Z,1.02
2023-11-06T09:54:48.275Z,0.77
2023-11-06T09:55:52.364Z,0.77
2023-11-06T09:56:56.263Z,1.10
2023-11-06T09:57:58.632Z,1.10
2023-11-06T09:59:03.546Z,0.90
2023-11-06T10:00:10.062Z,0.60
2023-11-06T10:01:15.670Z,0.80
2023-11-06T10:02:22.553Z,0.70
2023-11-06T10:03:27.940Z,0.93
2023-11-06T10:04:33.192Z,0.88
2023-11-06T10:05:35.730Z,0.90
2023-11-06T10:06:38.962Z,0.80
2023-11-06T10:07:43.442Z,0.70
2023-11-06T10:08:46.227Z,0.82
2023-11-06T10:09:48.563Z,0.68
2023-11-06T10:10:59.182Z,0.70
2023-11-06T10:12:15.624Z,0.90
2023-11-06T10:13:17.835Z,0.68
2023-11-06T10:14:20.798Z,1.10
2023-11-06T10:15:26.309Z,0.70
2023-11-06T10:16:28.555Z,0.85
2023-11-06T10:17:31.923Z,0.90
2023-11-06T10:18:34.402Z,1.02
2023-11-06T10:19:36.691Z,0.77
2023-11-06T10:20:42.907Z,0.75
2023-11-06T10:21:45.184Z,1.02
2023-11-06T10:22:58.108Z,1.02
2023-11-06T10:24:03.987Z,0.80
2023-11-06T10:25:09.489Z,0.75
2023-11-06T10:26:14.317Z,0.70
2023-11-06T10:27:27.560Z,0.80
2023-11-06T10:28:29.994Z,0.88
2023-11-06T10:29:32.359Z,0.80
2023-11-06T10:30:46.767Z,0.68
2023-11-06T10:31:50.074Z,0.90
2023-11-06T10:32:52.567Z,0.70
2023-11-06T10:33:55.012Z,0.70
2023-11-06T10:35:14.564Z,0.90
2023-11-06T10:36:17.111Z,1.10
2023-11-06T10:37:19.528Z,1.00
2023-11-06T10:38:35.145Z,1.20
2023-11-06T10:39:42.029Z,0.90
2023-11-06T10:40:44.575Z,0.80
2023-11-06T10:41:47.364Z,0.80
2023-11-06T10:42:50.002Z,0.70
2023-11-06T10:43:59.791Z,0.65
2023-11-06T10:45:03.669Z,0.82
2023-11-06T10:46:11.612Z,0.80
2023-11-06T10:47:17.274Z,0.90
2023-11-06T10:48:33.426Z,1.05
2023-11-06T10:49:37.681Z,0.90
2023-11-06T10:50:40.653Z,1.00
2023-11-06T10:51:46.580Z,0.98
2023-11-06T10:52:55.731Z,0.90
2023-11-06T10:54:00.464Z,0.85
2023-11-06T10:55:06.418Z,0.95
2023-11-06T10:56:14.793Z,0.80
2023-11-06T10:57:18.470Z,0.85
2023-11-06T10:58:22.829Z,0.80
2023-11-06T10:59:27.292Z,1.17
2023-11-06T11:00:32.286Z,1.15
2023-11-06T11:01:36.002Z,0.88
2023-11-06T11:02:46.884Z,1.10
2023-11-06T11:03:51.860Z,0.90
2023-11-06T11:04:54.600Z,0.70
2023-11-06T11:06:00.933Z,0.63
2023-11-06T11:07:05.554Z,1.00
2023-11-06T11:08:09.439Z,0.82
2023-11-06T11:09:12.572Z,0.73
2023-11-06T11:10:19.157Z,1.10
2023-11-06T11:11:22.061Z,0.82
2023-11-06T11:12:24.356Z,1.00
2023-11-06T11:13:27.279Z,1.20
2023-11-06T11:14:29.587Z,1.15
2023-11-06T11:15:34.562Z,1.17
2023-11-06T11:16:41.746Z,1.30
2023-11-06T11:18:16.444Z,1.02
2023-11-06T11:19:19.454Z,1.17
2023-11-06T11:20:21.878Z,1.15
2023-11-06T11:21:26.826Z,1.20
2023-11-06T11:22:32.943Z,0.98
2023-11-06T11:23:47.247Z,1.10
2023-11-06T11:24:50.621Z,1.00
2023-11-06T11:26:01.257Z,0.85
2023-11-06T11:27:11.533Z,0.93
2023-11-06T11:28:14.997Z,1.35
2023-11-06T11:29:17.315Z,0.90
2023-11-06T11:30:27.699Z,1.20
2023-11-06T11:31:44.297Z,1.15
2023-11-06T11:32:53.794Z,1.05
2023-11-06T11:33:56.663Z,1.38
2023-11-06T11:35:28.047Z,1.05
2023-11-06T11:36:39.935Z,0.80
2023-11-06T11:37:43.173Z,1.25
2023-11-06T11:38:49.659Z,1.20
2023-11-06T11:40:03.061Z,1.20
2023-11-06T11:41:10.096Z,1.08
2023-11-06T11:42:13.440Z,0.98
2023-11-06T11:43:24.603Z,1.20
2023-11-06T11:44:28.655Z,1.20
2023-11-06T11:45:32.242Z,1.30
2023-11-06T11:46:40.245Z,0.73
2023-11-06T11:47:48.306Z,1.02
2023-11-06T11:48:50.794Z,0.85
2023-11-06T11:49:53.756Z,1.00
2023-11-06T11:50:56.551Z,1.02
2023-11-06T11:51:58.922Z,0.82
2023-11-06T11:53:01.265Z,1.10
2023-11-06T11:54:06.466Z,0.77
2023-11-06T11:55:38.451Z,0.95
2023-11-06T11:56:50.696Z,0.80
2023-11-06T11:57:54.798Z,0.73
2023-11-06T11:58:57.897Z,0.80
2023-11-06T12:00:00.238Z,0.65
2023-11-06T12:01:02.513Z,1.00
2023-11-06T12:02:06.340Z,0.90
2023-11-06T12:03:17.537Z,0.90
2023-11-06T12:04:21.724Z,0.80
2023-11-06T12:05:24.263Z,0.60
2023-11-06T12:06:33.429Z,0.90
2023-11-06T12:07:41.694Z,0.77
2023-11-06T12:08:43.951Z,0.70
2023-11-06T12:09:48.934Z,0.80
2023-11-06T12:10:51.673Z,0.70
2023-11-06T12:11:53.969Z,1.00
2023-11-06T12:12:58.983Z,0.98
2023-11-06T12:14:03.734Z,0.73
2023-11-06T12:15:11.832Z,0.88
2023-11-06T12:16:15.432Z,0.80
2023-11-06T12:17:31.467Z,1.10
2023-11-06T12:18:33.999Z,1.00
2023-11-06T12:19:43.425Z,1.00
2023-11-06T12:20:46.830Z,1.00
2023-11-06T12:22:04.405Z,0.98
2023-11-06T12:23:08.268Z,0.70
2023-11-06T12:24:11.434Z,0.85
2023-11-06T12:25:13.819Z,1.00
2023-11-06T12:26:18.239Z,0.88
2023-11-06T12:27:22.110Z,0.98
2023-11-06T12:28:28.606Z,1.00
2023-11-06T12:29:30.806Z,1.00
2023-11-06T12:30:37.272Z,1.40
2023-11-06T12:31:39.596Z,0.80
2023-11-06T12:32:42.137Z,0.80
2023-11-06T12:33:44.626Z,0.80
2023-11-06T12:34:47.022Z,1.10
2023-11-06T12:35:52.137Z,0.80
2023-11-06T12:37:07.276Z,0.95
2023-11-06T12:38:09.567Z,0.70
2023-11-06T12:39:28.048Z,0.70
2023-11-06T12:40:30.222Z,0.70
2023-11-06T12:41:33.210Z,0.50
2023-11-06T12:42:35.576Z,0.70
2023-11-06T12:43:37.816Z,1.00
2023-11-06T12:44:41.237Z,0.60
2023-11-06T12:45:45.057Z,0.68
2023-11-06T12:47:53.685Z,0.88
2023-11-06T12:49:03.643Z,0.90
2023-11-06T12:50:07.413Z,0.80
2023-11-06T12:51:11.765Z,0.90
2023-11-06T12:52:18.721Z,0.50
2023-11-06T12:53:21.362Z,0.60
2023-11-06T12:54:27.702Z,0.60
2023-11-06T12:55:32.100Z,0.70
2023-11-06T12:56:34.472Z,0.65
2023-11-06T12:57:38.369Z,0.60
2023-11-06T12:58:40.709Z,0.50
2023-11-06T12:59:46.609Z,1.75
2023-11-06T13:00:56.870Z,4.32
2023-11-06T13:02:00.158Z,5.85
2023-11-06T13:03:04.168Z,3.42
2023-11-06T13:04:08.265Z,1.42
2023-11-06T13:05:11.206Z,0.80
2023-11-06T13:06:15.827Z,0.60
2023-11-06T13:07:18.207Z,0.65
2023-11-06T13:08:22.333Z,0.77
2023-11-06T13:09:25.405Z,0.70
2023-11-06T13:10:30.138Z,0.70
2023-11-06T13:11:38.410Z,0.88
2023-11-06T13:12:41.362Z,0.98
2023-11-06T13:13:44.137Z,0.90
2023-11-06T13:14:47.025Z,1.08
2023-11-06T13:15:49.315Z,1.23
2023-11-06T13:16:51.656Z,0.65
2023-11-06T13:17:55.915Z,0.60
2023-11-06T13:18:58.907Z,0.93
2023-11-06T13:20:01.143Z,1.13
2023-11-06T13:21:26.406Z,1.40
2023-11-06T13:22:29.265Z,1.20
2023-11-06T13:23:31.544Z,1.45
2023-11-06T13:24:34.753Z,1.23
2023-11-06T13:25:37.378Z,1.83
2023-11-06T13:26:39.687Z,1.63
2023-11-06T13:27:41.926Z,1.40
2023-11-06T13:28:44.814Z,0.80
2023-11-06T13:29:47.185Z,1.02
2023-11-06T13:30:49.512Z,1.05
2023-11-06T13:31:52.558Z,1.23
2023-11-06T13:32:55.199Z,1.85
2023-11-06T13:33:57.813Z,1.60
2023-11-06T13:35:00.892Z,0.82
2023-11-06T13:36:03.782Z,1.30
2023-11-06T13:37:07.314Z,1.40
2023-11-06T13:38:10.281Z,1.20
2023-11-06T13:39:15.132Z,0.70
2023-11-06T13:40:31.247Z,0.70
2023-11-06T13:41:36.765Z,0.80
2023-11-06T13:42:42.378Z,0.57
2023-11-06T13:43:44.626Z,0.85
2023-11-06T13:44:48.845Z,1.17
2023-11-06T13:45:51.181Z,0.65
2023-11-06T13:46:53.990Z,0.60
2023-11-06T13:48:05.116Z,0.75
2023-11-06T13:49:07.394Z,0.90
2023-11-06T13:50:24.261Z,0.75
2023-11-06T13:51:27.969Z,0.60
2023-11-06T13:52:43.117Z,0.80
2023-11-06T13:53:48.999Z,0.63
2023-11-06T13:54:53.234Z,0.63
2023-11-06T13:56:21.274Z,0.63
2023-11-06T13:57:26.929Z,0.60
2023-11-06T13:58:29.341Z,0.60
2023-11-06T13:59:31.700Z,0.40
2023-11-06T14:00:37.720Z,0.50
2023-11-06T14:01:49.843Z,0.47
2023-11-06T14:02:52.412Z,0.60
2023-11-06T14:03:54.846Z,0.50
2023-11-06T14:04:59.167Z,0.57
2023-11-06T14:06:01.433Z,0.50
2023-11-06T14:07:06.624Z,0.73
2023-11-06T14:08:08.937Z,0.60
2023-11-06T14:09:29.515Z,0.80
2023-11-06T14:10:33.453Z,0.40
2023-11-06T14:11:35.698Z,0.60